Darstellungsparameter: Aktuell verwendete Einstellungen:
Skalierung der Graphiken ... ?
xyx+y,   Skalierungsfaktor:      Skalierung: Modus: x, Faktor: 1
Darstellungszeitraum ... ?
Vom - - bis: - -   Zeitraum: 14.05.2021 - 14.05.2021
Min/Max/Avg-Anzeige ... ?
Zeige MMA aktuell
Zeige MMA Monat
Zeige MMA alles
Zeige --A aktuell
Zeige --A Monat
Zeige --A alles
Keine MMA-Anzeige
MMA:
Average (ber die Originaldaten)
MMA-Basis: 14.05.2021 - 14.05.2021
Quicknavigation für Darstellung... ?
Tage:      1T, 2T, 3T, 5T -1T -2T -3T -5T +1T +2T +3T +5T
Wochen: 1W, 2W, 3W -1W -2W -3W +1W +2W +3W
Monate: 1M, 3M, 6M -1M -3M -6M +1M +3M +6M
Jahre:    1J, 3J, 5J, 10J -1J -3J -5J -10J +1J +3J +5J +10J
Nutze für die Darstellung ... ?
Originaldaten oder Mittelwerte auf ...
Stundenbasis Tagesbasis Wochenbasis
Monatsbasis Jahresbasis      Datenbasis: Original-Daten
Darstellen als:
Statistik (Auto) Statistik J:M      Darstellung:

Der gewünschte Datumsbereich war nicht gültig/verfügbar und wurde korrigiert....
Das angegebene Enddatum (01.07.2021 23:59:59) liegt in der Zukunft.
Das angegebene Startdatum (03.06.2021 00:00:00) liegt in der Zukunft.


Zur Graphik,    zurück zur Übersicht aller Sensoren.
 
Tabellarische Datenbersicht: ?
 
Sensor: Nr:Datum:Temp:Feuchte:
Aussen-T/F 1 14-05-2021 02:06:18 9.9 C 41 %
2 14-05-2021 02:16:18 9.6 C 41 %
3 14-05-2021 02:26:18 9.3 C 42 %
4 14-05-2021 02:36:17 8.8 C 43 %
5 14-05-2021 02:46:18 8.7 C 44 %
6 14-05-2021 02:56:18 8.4 C 44 %
7 14-05-2021 03:06:17 8.2 C 44 %
8 14-05-2021 03:16:17 8.3 C 45 %
9 14-05-2021 03:26:17 7.9 C 45 %
10 14-05-2021 03:36:18 7.8 C 45 %
11 14-05-2021 03:46:17 7.6 C 45 %
12 14-05-2021 03:56:17 7.9 C 44 %
13 14-05-2021 04:06:17 7.8 C 44 %
14 14-05-2021 04:16:18 7.9 C 43 %
15 14-05-2021 04:26:18 7.8 C 43 %
16 14-05-2021 04:36:17 7.4 C 44 %
17 14-05-2021 04:46:17 7.3 C 44 %
18 14-05-2021 04:56:17 7.4 C 44 %
19 14-05-2021 05:06:18 7.3 C 44 %
20 14-05-2021 05:16:17 7 C 44 %
21 14-05-2021 05:26:17 6.8 C 45 %
22 14-05-2021 05:36:17 7 C 44 %
23 14-05-2021 05:46:17 7.3 C 43 %
24 14-05-2021 05:56:17 7.4 C 42 %
25 14-05-2021 06:06:18 7.2 C 43 %
Sensor: Nr:Datum:Temp:Feuchte:
Aussen-T/F 26 14-05-2021 06:16:17 7.4 C 42 %
27 14-05-2021 06:26:18 7.2 C 43 %
28 14-05-2021 06:36:17 7.3 C 43 %
29 14-05-2021 06:46:17 7.5 C 42 %
30 14-05-2021 06:56:17 8 C 41 %
31 14-05-2021 07:06:17 8.2 C 41 %
32 14-05-2021 07:16:17 8.4 C 40 %
33 14-05-2021 07:26:17 8.6 C 40 %
34 14-05-2021 07:36:18 8.8 C 40 %
35 14-05-2021 07:46:17 9.4 C 40 %
36 14-05-2021 07:56:17 9.6 C 39 %
37 14-05-2021 08:06:17 9.6 C 39 %
38 14-05-2021 08:16:17 10 C 38 %
39 14-05-2021 08:26:17 10.7 C 38 %
40 14-05-2021 08:36:17 11.5 C 36 %
41 14-05-2021 08:46:17 12 C 35 %
42 14-05-2021 08:56:17 12.5 C 35 %
43 14-05-2021 09:06:17 11.8 C 36 %
44 14-05-2021 09:16:17 12.4 C 35 %
45 14-05-2021 09:26:17 12.4 C 35 %
46 14-05-2021 09:36:17 12.9 C 35 %
47 14-05-2021 09:46:18 13.2 C 35 %
48 14-05-2021 09:56:18 13.4 C 34 %
49 14-05-2021 10:06:17 13.8 C 34 %
50 14-05-2021 10:16:17 14.5 C 33 %
Sensor: Nr:Datum:Temp:Feuchte:
Aussen-T/F 51 14-05-2021 10:26:17 14.3 C 33 %
52 14-05-2021 10:36:17 14.2 C 33 %
53 14-05-2021 10:46:17 15.2 C 32 %
54 14-05-2021 10:56:17 16.4 C 30 %
55 14-05-2021 11:06:17 17.2 C 29 %
56 14-05-2021 11:16:17 17.5 C 30 %
57 14-05-2021 11:26:17 18.6 C 27 %
58 14-05-2021 11:36:17 17 C 27 %
59 14-05-2021 11:46:17 16.9 C 27 %
60 14-05-2021 11:56:17 16.8 C 27 %
61 14-05-2021 12:06:17 17.4 C 27 %
62 14-05-2021 12:16:17 17.3 C 26 %
63 14-05-2021 12:26:17 16.7 C 28 %
64 14-05-2021 12:36:17 16.4 C 27 %
65 14-05-2021 12:46:17 16.6 C 28 %
66 14-05-2021 12:56:17 16.9 C 27 %
67 14-05-2021 13:06:17 17 C 27 %
68 14-05-2021 13:16:17 17.3 C 27 %
69 14-05-2021 13:26:17 17.2 C 27 %
70 14-05-2021 13:36:18 18.7 C 26 %
71 14-05-2021 13:46:17 19.2 C 25 %
72 14-05-2021 13:56:17 23.1 C 20 %
73 14-05-2021 14:06:17 20 C 23 %
74 14-05-2021 14:16:17 22.8 C 20 %
75 14-05-2021 14:26:18 20.1 C 22 %
Sensor: Nr:Datum:Temp:Feuchte:
Aussen-T/F 76 14-05-2021 14:36:17 17.2 C 25 %
77 14-05-2021 14:46:18 16.2 C 25 %
78 14-05-2021 14:56:18 20.5 C 22 %
79 14-05-2021 15:06:17 24.2 C 20 %
80 14-05-2021 15:16:17 22.6 C 20 %
81 14-05-2021 15:26:17 19.6 C 22 %
82 14-05-2021 15:36:17 21.2 C 20 %
83 14-05-2021 15:46:17 22.9 C 20 %
84 14-05-2021 15:56:18 20.8 C 21 %
85 14-05-2021 16:06:17 20.4 C 20 %
86 14-05-2021 16:16:17 21.8 C 20 %
87 14-05-2021 16:26:17 22.9 C 20 %
88 14-05-2021 16:36:18 24.5 C 20 %
89 14-05-2021 16:46:17 23.7 C 20 %
90 14-05-2021 16:56:17 24.1 C 20 %
91 14-05-2021 17:06:17 24.4 C 20 %
92 14-05-2021 17:16:17 22.2 C 20 %
93 14-05-2021 17:26:17 23.4 C 20 %
94 14-05-2021 17:36:18 21.5 C 20 %
95 14-05-2021 17:46:17 19.2 C 21 %
96 14-05-2021 17:56:17 17.2 C 25 %
97 14-05-2021 18:06:17 16.2 C 26 %
98 14-05-2021 18:16:17 16.3 C 26 %
99 14-05-2021 18:26:17 16.4 C 26 %
100 14-05-2021 18:36:17 16.4 C 26 %
Sensor: Nr:Datum:Temp:Feuchte:
Aussen-T/F 101 14-05-2021 18:46:17 17.2 C 26 %
102 14-05-2021 18:56:17 16.2 C 27 %
103 14-05-2021 19:06:17 16.8 C 27 %
104 14-05-2021 19:16:17 16.9 C 26 %
105 14-05-2021 19:26:17 16.5 C 25 %
106 14-05-2021 19:36:17 16 C 26 %
107 14-05-2021 19:46:18 14.9 C 30 %
108 14-05-2021 19:56:18 14.3 C 30 %
109 14-05-2021 20:06:17 13.8 C 31 %
110 14-05-2021 20:16:17 13.5 C 32 %
111 14-05-2021 20:26:17 13.5 C 32 %
112 14-05-2021 20:36:17 13.6 C 32 %
113 14-05-2021 20:46:17 13.7 C 32 %
114 14-05-2021 20:56:17 13.4 C 33 %
115 14-05-2021 21:06:17 13.1 C 33 %
116 14-05-2021 21:16:17 12.9 C 35 %
117 14-05-2021 21:26:17 12.7 C 36 %
118 14-05-2021 21:36:17 12.7 C 35 %
119 14-05-2021 21:46:17 12.6 C 35 %
120 14-05-2021 21:56:17 12.4 C 36 %
121 14-05-2021 22:06:17 12 C 36 %
122 14-05-2021 22:16:17 11.9 C 37 %
123 14-05-2021 22:26:17 11.8 C 37 %
124 14-05-2021 22:36:18 11.9 C 37 %
125 14-05-2021 22:46:17 12.1 C 36 %
Sensor: Nr:Datum:Temp:Feuchte:
Aussen-T/F 126 14-05-2021 22:56:17 11.9 C 38 %
127 14-05-2021 23:06:17 11.7 C 37 %
128 14-05-2021 23:16:17 11.5 C 37 %
129 14-05-2021 23:26:17 11.9 C 36 %
130 14-05-2021 23:36:17 12.4 C 35 %
131 14-05-2021 23:46:18 11.8 C 36 %
132 14-05-2021 23:56:18 11.5 C 36 %
Sensor: Nr:Datum:Temp:Feuchte:
G-T/H 1 14-05-2021 02:06:18 15.1 C 63 %
2 14-05-2021 02:16:18 15.1 C 63 %
3 14-05-2021 02:26:18 15.1 C 63 %
4 14-05-2021 02:36:17 15 C 63 %
5 14-05-2021 02:46:18 15 C 63 %
6 14-05-2021 02:56:18 15 C 63 %
7 14-05-2021 03:06:17 15 C 63 %
8 14-05-2021 03:16:17 15 C 63 %
9 14-05-2021 03:26:17 15 C 63 %
10 14-05-2021 03:36:18 14.9 C 64 %
11 14-05-2021 03:46:17 15 C 63 %
12 14-05-2021 03:56:17 14.9 C 63 %
13 14-05-2021 04:06:17 14.9 C 63 %
14 14-05-2021 04:16:18 14.9 C 63 %
15 14-05-2021 04:26:18 14.9 C 63 %
16 14-05-2021 04:36:17 14.8 C 63 %
17 14-05-2021 04:46:17 14.8 C 63 %
18 14-05-2021 04:56:17 14.8 C 63 %
19 14-05-2021 05:06:18 14.8 C 63 %
20 14-05-2021 05:16:17 14.8 C 63 %
21 14-05-2021 05:26:17 14.8 C 63 %
22 14-05-2021 05:36:17 14.8 C 63 %
23 14-05-2021 05:46:17 14.8 C 63 %
24 14-05-2021 05:56:17 14.7 C 63 %
25 14-05-2021 06:06:18 14.7 C 63 %
Sensor: Nr:Datum:Temp:Feuchte:
G-T/H 26 14-05-2021 06:16:17 14.7 C 63 %
27 14-05-2021 06:26:18 14.7 C 63 %
28 14-05-2021 06:36:17 14.6 C 63 %
29 14-05-2021 06:46:17 14.7 C 63 %
30 14-05-2021 06:56:17 14.6 C 63 %
31 14-05-2021 07:06:17 14.6 C 63 %
32 14-05-2021 07:16:17 14.6 C 63 %
33 14-05-2021 07:26:17 14.6 C 63 %
34 14-05-2021 07:36:18 14.5 C 63 %
35 14-05-2021 07:46:17 14.6 C 63 %
36 14-05-2021 07:56:17 14.5 C 63 %
37 14-05-2021 08:06:17 14.5 C 63 %
38 14-05-2021 08:16:17 14.5 C 63 %
39 14-05-2021 08:26:17 14.5 C 63 %
40 14-05-2021 08:36:17 14.5 C 63 %
41 14-05-2021 08:46:17 14.5 C 63 %
42 14-05-2021 08:56:17 14.5 C 63 %
43 14-05-2021 09:06:17 14.5 C 63 %
44 14-05-2021 09:16:17 14.5 C 63 %
45 14-05-2021 09:26:17 14.5 C 63 %
46 14-05-2021 09:36:17 14.5 C 63 %
47 14-05-2021 09:46:18 14.4 C 63 %
48 14-05-2021 09:56:18 14.5 C 63 %
49 14-05-2021 10:06:17 14.5 C 63 %
50 14-05-2021 10:16:17 14.4 C 63 %
Sensor: Nr:Datum:Temp:Feuchte:
G-T/H 51 14-05-2021 10:26:17 14.4 C 63 %
52 14-05-2021 10:36:17 14.4 C 63 %
53 14-05-2021 10:46:17 14.4 C 63 %
54 14-05-2021 10:56:17 14.5 C 63 %
55 14-05-2021 11:06:17 14.5 C 64 %
56 14-05-2021 11:16:17 14.5 C 64 %
57 14-05-2021 11:26:17 14.5 C 64 %
58 14-05-2021 11:36:17 14.5 C 64 %
59 14-05-2021 11:46:17 14.5 C 64 %
60 14-05-2021 11:56:17 14.5 C 64 %
61 14-05-2021 12:06:17 14.5 C 64 %
62 14-05-2021 12:16:17 14.5 C 64 %
63 14-05-2021 12:26:17 14.6 C 64 %
64 14-05-2021 12:36:17 14.6 C 64 %
65 14-05-2021 12:46:17 14.6 C 64 %
66 14-05-2021 12:56:17 14.6 C 64 %
67 14-05-2021 13:06:17 14.6 C 64 %
68 14-05-2021 13:16:17 14.7 C 64 %
69 14-05-2021 13:26:17 14.7 C 64 %
70 14-05-2021 13:36:18 14.7 C 64 %
71 14-05-2021 13:46:17 14.7 C 64 %
72 14-05-2021 13:56:17 14.8 C 64 %
73 14-05-2021 14:06:17 14.8 C 64 %
74 14-05-2021 14:16:17 14.8 C 64 %
75 14-05-2021 14:26:18 14.8 C 64 %
Sensor: Nr:Datum:Temp:Feuchte:
G-T/H 76 14-05-2021 14:36:17 14.9 C 64 %
77 14-05-2021 14:46:18 14.9 C 64 %
78 14-05-2021 14:56:18 14.9 C 64 %
79 14-05-2021 15:06:17 15 C 63 %
80 14-05-2021 15:16:17 15 C 63 %
81 14-05-2021 15:26:17 15 C 63 %
82 14-05-2021 15:36:17 15.1 C 63 %
83 14-05-2021 15:46:17 15.2 C 63 %
84 14-05-2021 15:56:18 15.2 C 63 %
85 14-05-2021 16:06:17 15.2 C 63 %
86 14-05-2021 16:16:17 15.2 C 63 %
87 14-05-2021 16:26:17 15.2 C 63 %
88 14-05-2021 16:36:18 15.3 C 63 %
89 14-05-2021 16:46:17 15.3 C 63 %
90 14-05-2021 16:56:17 15.3 C 63 %
91 14-05-2021 17:06:17 15.4 C 63 %
92 14-05-2021 17:16:17 15.4 C 63 %
93 14-05-2021 17:26:17 15.4 C 62 %
94 14-05-2021 17:36:18 15.5 C 62 %
95 14-05-2021 17:46:17 15.5 C 62 %
96 14-05-2021 17:56:17 15.5 C 62 %
97 14-05-2021 18:06:17 15.5 C 62 %
98 14-05-2021 18:16:17 15.5 C 62 %
99 14-05-2021 18:26:17 15.5 C 62 %
100 14-05-2021 18:36:17 15.5 C 62 %
Sensor: Nr:Datum:Temp:Feuchte:
G-T/H 101 14-05-2021 18:46:17 15.5 C 62 %
102 14-05-2021 18:56:17 15.6 C 62 %
103 14-05-2021 19:06:17 15.6 C 62 %
104 14-05-2021 19:16:17 15.7 C 62 %
105 14-05-2021 19:26:17 15.7 C 62 %
106 14-05-2021 19:36:17 15.7 C 62 %
107 14-05-2021 19:46:18 15.7 C 62 %
108 14-05-2021 19:56:18 15.7 C 62 %
109 14-05-2021 20:06:17 15.6 C 63 %
110 14-05-2021 20:16:17 15.6 C 63 %
111 14-05-2021 20:26:17 15.6 C 63 %
112 14-05-2021 20:36:17 15.6 C 63 %
113 14-05-2021 20:46:17 15.6 C 63 %
114 14-05-2021 20:56:17 15.6 C 63 %
115 14-05-2021 21:06:17 15.6 C 63 %
116 14-05-2021 21:16:17 15.6 C 63 %
117 14-05-2021 21:26:17 15.6 C 63 %
118 14-05-2021 21:36:17 15.5 C 63 %
119 14-05-2021 21:46:17 15.6 C 63 %
120 14-05-2021 21:56:17 15.5 C 63 %
121 14-05-2021 22:06:17 15.6 C 63 %
122 14-05-2021 22:16:17 15.6 C 63 %
123 14-05-2021 22:26:17 15.5 C 63 %
124 14-05-2021 22:36:18 15.5 C 63 %
125 14-05-2021 22:46:17 15.5 C 63 %
Sensor: Nr:Datum:Temp:Feuchte:
G-T/H 126 14-05-2021 22:56:17 15.5 C 63 %
127 14-05-2021 23:06:17 15.5 C 63 %
128 14-05-2021 23:16:17 15.5 C 63 %
129 14-05-2021 23:26:17 15.5 C 63 %
130 14-05-2021 23:36:17 15.5 C 63 %
131 14-05-2021 23:46:18 15.5 C 63 %
132 14-05-2021 23:56:18 15.5 C 63 %

Legende:
   Min
   Max


Maximal/Minimal-Werte vom 14.05.2021 - 14.05.2021

Sensor Min Max Avg
Temp
(Aussen-T/F)
6.8 °C
14-05-2021  05:26:17
24.5 °C
14-05-2021  16:36:18
13.98 °C
Feuchte
(Aussen-T/F)
20 %
14-05-2021  13:56:17
45 %
14-05-2021  03:16:17
32.7 %
Temp
(G-T/H)
14.4 °C
14-05-2021  09:46:18
15.7 °C
14-05-2021  19:16:17
15 °C
Feuchte
(G-T/H)
62 %
14-05-2021  17:26:17
64 %
14-05-2021  03:36:18
63.07 %

Die Daten stammen von einer Davis Vantage Pro 2 Wetter-Station und werden unter Linux mit der Software wview2wettercgi und aufbereitet. Alle Angaben erfolgen ohne Gewähr für ihre Vollständigkeit oder Richtigkeit.
Kontakt: Rainer Krienke krienke@uni-koblenz.de . Meine Webseiten an der Uni Koblenz oder privat.
Version: $Revision: 0.78 $